Map

Track Data

SID SEASON NUMBER BASIN SUBBASIN NAME ISO_TIME NATURE LAT LON WMO_WIND WMO_PRES WMO_AGENCY TRACK_TYPE DIST2LAND LANDFALL IFLAG USA_AGENCY USA_ATCF_ID USA_LAT USA_LON USA_RECORD USA_STATUS USA_WIND USA_PRES USA_SSHS USA_R34_NE USA_R34_SE USA_R34_SW USA_R34_NW USA_R50_NE USA_R50_SE USA_R50_SW USA_R50_NW USA_R64_NE USA_R64_SE USA_R64_SW USA_R64_NW USA_POCI USA_ROCI USA_RMW USA_EYE TOKYO_LAT TOKYO_LON TOKYO_GRADE TOKYO_WIND TOKYO_PRES TOKYO_R50_DIR TOKYO_R50_LONG TOKYO_R50_SHORT TOKYO_R30_DIR TOKYO_R30_LONG TOKYO_R30_SHORT TOKYO_LAND CMA_LAT CMA_LON CMA_CAT CMA_WIND CMA_PRES HKO_LAT HKO_LON HKO_CAT HKO_WIND HKO_PRES NEWDELHI_LAT NEWDELHI_LON NEWDELHI_GRADE NEWDELHI_WIND NEWDELHI_PRES NEWDELHI_CI NEWDELHI_DP NEWDELHI_POCI REUNION_LAT REUNION_LON REUNION_TYPE REUNION_WIND REUNION_PRES REUNION_TNUM REUNION_CI REUNION_RMW REUNION_R34_NE REUNION_R34_SE REUNION_R34_SW REUNION_R34_NW REUNION_R50_NE REUNION_R50_SE REUNION_R50_SW REUNION_R50_NW REUNION_R64_NE REUNION_R64_SE REUNION_R64_SW REUNION_R64_NW BOM_LAT BOM_LON BOM_TYPE BOM_WIND BOM_PRES BOM_TNUM BOM_CI BOM_RMW BOM_R34_NE BOM_R34_SE BOM_R34_SW BOM_R34_NW BOM_R50_NE BOM_R50_SE BOM_R50_SW BOM_R50_NW BOM_R64_NE BOM_R64_SE BOM_R64_SW BOM_R64_NW BOM_ROCI BOM_POCI BOM_EYE BOM_POS_METHOD BOM_PRES_METHOD NADI_LAT NADI_LON NADI_CAT NADI_WIND NADI_PRES WELLINGTON_LAT WELLINGTON_LON WELLINGTON_WIND WELLINGTON_PRES DS824_LAT DS824_LON DS824_STAGE DS824_WIND DS824_PRES TD9636_LAT TD9636_LON TD9636_STAGE TD9636_WIND TD9636_PRES TD9635_LAT TD9635_LON TD9635_WIND TD9635_PRES TD9635_ROCI NEUMANN_LAT NEUMANN_LON NEUMANN_CLASS NEUMANN_WIND NEUMANN_PRES MLC_LAT MLC_LON MLC_CLASS MLC_WIND MLC_PRES USA_GUST BOM_GUST BOM_GUST_PER REUNION_GUST REUNION_GUST_PER USA_SEAHGT USA_SEARAD_NE USA_SEARAD_SE USA_SEARAD_SW USA_SEARAD_NW STORM_SPEED STORM_DIR
1963274N15115 1963 94 WP MM NOT_NAMED 1963-09-30 12:00:00 TS 14.5000 115.000 main 531 531 __O___________ -1 14.5000 115.000 0 1006 17 261
1963274N15115 1963 94 WP MM NOT_NAMED 1963-09-30 15:00:00 TS 14.3710 114.145 main 520 454 __P___________ -1 14.3710 114.145 0 1006 15 258
1963274N15115 1963 94 WP MM NOT_NAMED 1963-09-30 18:00:00 TS 14.2000 113.500 main 454 418 __O___________ -1 14.2000 113.500 0 1006 10 246
1963274N15115 1963 94 WP MM NOT_NAMED 1963-09-30 21:00:00 TS 13.9646 113.215 main 418 410 __P___________ -1 13.9646 113.215 0 1006 6 210
1963274N15115 1963 94 WP MM NOT_NAMED 1963-10-01 00:00:00 TS 13.7000 113.200 main 410 406 __O___________ -1 13.7000 113.200 0 1006 5 170
1963274N15115 1963 94 WP MM NOT_NAMED 1963-10-01 03:00:00 TS 13.4425 113.305 main 415 415 __P___________ -1 13.4425 113.305 0 1005 6 150
1963274N15115 1963 94 WP MM NOT_NAMED 1963-10-01 06:00:00 TS 13.2000 113.500 main 434 434 __O___________ -1 13.2000 113.500 0 1005 6 140
1963274N15115 1963 94 WP MM NOT_NAMED 1963-10-01 09:00:00 TS 12.9850 113.695 main 455 455 __P___________ -1 12.9850 113.695 0 1005 6 127
1963274N15115 1963 94 WP MM NOT_NAMED 1963-10-01 12:00:00 TS 12.8600 113.960 main 488 477 __O_______O___ -1 12.8000 113.800 0 1005 13.1000 114.600 1 3 125
1963274N15115 1963 94 WP MM NOT_NAMED 1963-10-01 15:00:00 TS 12.8243 113.932 main 477 466 __P_______P___ -1 12.6200 113.710 0 1005 13.2330 114.375 1 2 273
1963274N15115 1963 94 WP MM NOT_NAMED 1963-10-01 18:00:00 TS 12.8697 113.779 main 466 444 __O_______P___ -1 12.5000 113.500 0 1005 13.3627 114.150 1 4 294
1963274N15115 1963 94 WP MM NOT_NAMED 1963-10-01 21:00:00 TS 12.9705 113.595 main 444 423 __P_______P___ -1 12.4550 113.265 0 1005 13.4860 113.925 1 5 293
1963274N15115 1963 94 WP MM NOT_NAMED 1963-10-02 00:00:00 TS 13.0500 113.350 main 423 390 __O_______O___ -1 12.5000 113.000 0 1005 13.6000 113.700 1 5 292
1963274N15115 1963 94 WP MM NOT_NAMED 1963-10-02 03:00:00 TS 13.1615 113.101 main 391 371 __P_______P___ -1 12.6200 112.728 0 1005 13.7031 113.475 1 5 298
1963274N15115 1963 94 WP MM NOT_NAMED 1963-10-02 06:00:00 TS 13.3000 112.875 main 371 351 __O_______P___ -1 12.8000 112.500 1 23 1005 13.7999 113.250 1 5 306
1963274N15115 1963 94 WP MM NOT_NAMED 1963-10-02 09:00:00 TS 13.4371 112.712 main 351 342 __P_______P___ -1 12.9774 112.400 1 23 1005 13.8968 113.025 1 4 313
1963274N15115 1963 94 WP MM NOT_NAMED 1963-10-02 12:00:00 TS 13.6000 112.550 main 344 319 __O_______O___ -1 13.2000 112.300 1 23 1005 14.0000 112.800 1 5 314
1963274N15115 1963 94 WP MM NOT_NAMED 1963-10-02 15:00:00 TS 13.8052 112.316 main 319 302 __P_______P___ -1 13.4926 112.058 1 23 1005 14.1178 112.575 1 6 312
1963274N15115 1963 94 WP MM NOT_NAMED 1963-10-02 18:00:00 TS 14.0212 112.075 main 302 281 __O_______P___ -1 13.8000 111.800 1 23 1005 14.2424 112.350 1 6 313
1963274N15115 1963 94 WP MM NOT_NAMED 1963-10-02 21:00:00 TS 14.2142 111.861 main 282 262 __P_______P___ -1 14.0575 111.598 1 23 1005 14.3709 112.125 1 5 316
1963274N15115 1963 94 WP MM NOT_NAMED 1963-10-03 00:00:00 TS 14.4000 111.700 main 264 256 __O_______O___ -1 14.3000 111.500 1 23 1005 14.5000 111.900 1 4 328
1963274N15115 1963 94 WP MM NOT_NAMED 1963-10-03 03:00:00 TS 14.5909 111.617 main 260 260 __P_______P___ -1 14.5650 111.562 1 21 1005 14.6168 111.671 1 4 341
1963274N15115 1963 94 WP MM NOT_NAMED 1963-10-03 06:00:00 TS 14.7675 111.571 main 267 257 __O_______P___ -1 14.8000 111.700 0 19 1005 14.7350 111.442 1 3 343
1963274N15115 1963 94 WP MM NOT_NAMED 1963-10-03 09:00:00 TS 14.8978 111.516 main 259 259 __P_______P___ -1 14.9350 111.815 0 18 1005 14.8606 111.218 1 3 337
1963274N15115 1963 94 WP MM NOT_NAMED 1963-10-03 12:00:00 TS 15.0500 111.450 main 261 251 __O_______O___ -1 15.1000 111.900 0 17 1006 15.0000 111.000 1 4 341
1963274N15115 1963 94 WP MM NOT_NAMED 1963-10-03 15:00:00 TS 15.3056 111.369 main 256 246 __P_______P___ -1 15.4424 111.952 0 1006 15.1687 110.785 1 6 339
1963274N15115 1963 94 WP MM NOT_NAMED 1963-10-03 18:00:00 TS 15.5750 111.239 main 246 242 __O_______P___ -1 15.8000 111.900 0 1007 15.3500 110.578 1 6 327
1963274N15115 1963 94 WP MM NOT_NAMED 1963-10-03 21:00:00 TS 15.7844 111.042 main 234 218 __P_______P___ -1 16.0375 111.703 0 1007 15.5312 110.382 1 6 312
1963274N15115 1963 94 WP MM NOT_NAMED 1963-10-04 00:00:00 TS 15.9500 110.800 main 222 202 __O_______O___ -1 16.2000 111.400 0 1007 15.7000 110.200 1 6 302
1963274N15115 1963 94 WP MM NOT_NAMED 1963-10-04 03:00:00 TS 16.0809 110.554 main 208 187 __P_______P___ -1 16.3225 111.065 0 1007 15.8392 110.044 1 5 296
1963274N15115 1963 94 WP MM NOT_NAMED 1963-10-04 06:00:00 TS 16.1824 110.300 main 187 170 __O_______P___ -1 16.4000 110.700 0 1007 15.9648 109.900 1 5 292
1963274N15115 1963 94 WP MM NOT_NAMED 1963-10-04 09:00:00 TS 16.2739 110.064 main 177 154 __P_______P___ -1 16.4648 110.372 0 1007 16.0830 109.756 1 5 289
1963274N15115 1963 94 WP MM NOT_NAMED 1963-10-04 12:00:00 TS 16.3500 109.800 main 162 135 __O_______O___ -1 16.5000 110.000 0 1007 16.2000 109.600 1 6 286
1963274N15115 1963 94 WP MM NOT_NAMED 1963-10-04 15:00:00 TS 16.4321 109.492 main 135 111 __P_______P___ -1 16.5077 109.485 0 1007 16.3565 109.500 1 6 285
1963274N15115 1963 94 WP MM NOT_NAMED 1963-10-04 18:00:00 TS 16.5041 109.186 main 111 93 __O_______P___ -1 16.5000 109.000 0 1007 16.5082 109.373 1 5 284
1963274N15115 1963 94 WP MM NOT_NAMED 1963-10-04 21:00:00 TS 16.5653 108.955 main 100 78 __P_______P___ -1 16.4996 108.750 0 1007 16.6310 109.159 1 5 281
1963274N15115 1963 94 WP MM NOT_NAMED 1963-10-05 00:00:00 TS 16.6000 108.650 main 78 46 __O_______O___ -1 16.5000 108.500 0 1008 16.7000 108.800 1 8 272
1963274N15115 1963 94 WP MM NOT_NAMED 1963-10-05 03:00:00 TS 16.6000 108.117 main 39 0 __P_______P___ -1 16.5003 108.000 0 1008 16.6996 108.234 1 11 269
1963274N15115 1963 94 WP MM NOT_NAMED 1963-10-05 06:00:00 TS 16.5806 107.513 main 0 0 __O_______P___ -1 16.5000 107.500 0 1008 16.6411 107.522 1 12 266
1963274N15115 1963 94 WP MM NOT_NAMED 1963-10-05 09:00:00 TS 16.5245 106.879 main 0 0 __P_______P___ -1 16.4998 107.188 0 1008 16.5368 106.724 1 13 263
1963274N15115 1963 94 WP MM NOT_NAMED 1963-10-05 12:00:00 TS 16.4200 106.120 main 0 0 __O_______O___ -1 16.5000 107.000 0 1008 16.4000 105.900 1 17 260
1963274N15115 1963 94 WP MM NOT_NAMED 1963-10-05 15:00:00 NR 16.2444 105.163 main 0 0 __________P___ -1 0 16.2444 105.163 1 17 258
1963274N15115 1963 94 WP MM NOT_NAMED 1963-10-05 18:00:00 NR 16.0632 104.409 main 0 0 __________P___ -1 16.0632 104.409 1 15 256
1963274N15115 1963 94 WP MM NOT_NAMED 1963-10-05 21:00:00 NR 15.8754 103.626 main 0 0 __________P___ -1 15.8754 103.626 1 16 257
1963274N15115 1963 94 WP MM NOT_NAMED 1963-10-06 00:00:00 NR 15.7000 102.800 main 0 0 __________O___ -1 15.7000 102.800 1 17 258
1963274N15115 1963 94 WP MM NOT_NAMED 1963-10-06 03:00:00 NR 15.5229 101.946 main 0 0 __________P___ -1 15.5229 101.946 1 17 259
1963274N15115 1963 94 WP MM NOT_NAMED 1963-10-06 06:00:00 NR 15.3657 101.046 main 0 0 __________P___ -1 15.3657 101.046 1 18 261
1963274N15115 1963 94 WP MM NOT_NAMED 1963-10-06 09:00:00 NR 15.2506 100.098 main 0 0 __________P___ -1 15.2506 100.098 1 19 265
1963274N15115 1963 94 NI BB NOT_NAMED 1963-10-06 12:00:00 NR 15.2000 99.1000 main 0 0 __________O___ -1 15.2000 99.1000 1 20 269
1963274N15115 1963 94 NI BB NOT_NAMED 1963-10-06 15:00:00 NR 15.2284 98.0501 main 0 0 __________P___ -1 15.2284 98.0501 1 21 273
1963274N15115 1963 94 NI BB NOT_NAMED 1963-10-06 18:00:00 NR 15.3200 96.9580 main 75 54 __________P___ -1 15.3200 96.9580 1 21 276
1963274N15115 1963 94 NI BB NOT_NAMED 1963-10-06 21:00:00 NR 15.4516 95.8367 main 39 11 __________P___ -1 15.4516 95.8367 1 22 277
1963274N15115 1963 94 NI BB NOT_NAMED 1963-10-07 00:00:00 NR 15.6000 94.7000 main 22 __________O___ -1 15.6000 94.7000 1 22 278

Digital Typhoon Data and Search

About IBTrACS Database

This database is a web-friendly format of International Best Track Archive for Climate Stewardship (IBTrACS), a global best track data archive curated by NOAA dating back to 1842.

Updated: 2021-10-25